METAR Data
IDs: Format: Raw Decoded Include TAF

Data at: 1222 UTC 26 Feb 2021

EDDW 261150Z 31014KT 9999 SCT032 10/02 Q1032 NOSIG